Kezdőlap
METAR-TAF:

METAR-TAF

Repülőterek :

Sitiawan, Malajzia

földrajzi szélesség: 04-13N, földrajzi hosszúság: 100-42E, magasság: 7 m

Jelenlegi meteorológiai megfigyelések

A jelentés 51 perccel ezelõtt készült, 20:00 UTC
Szélcsend
Hőmérséklet 27°C
Páratartalom 89%
Légköri nyomás 1007 hPa
Látótávolság: 9000 m
Kevés felhő 3100 lábon

METAR: WMBA 152000Z 00000KT 9000 FEW031 27/25 Q1007

Idő: 04:51 (20:51 UTC)


TAF: hiányzik

Meteorológiai megfigyelések és előrejelzések több, mint 4000 repülőtéren (METAR és TAF jelentéseket).

A térképen piros és sárga pontok jelzik az elérhető meteorológiai állomásokat.

Mozgassa az egeret a pont fölött, hogy megjelenjen az állomás neve.

Azután kattintson az időjárási megfigyelések és előrejelzések megtekintéséhez.

A térkép megváltoztatása: kattintson a fekete keresztel jelölt zöld gombra ráközelítéshez, a vonallal jelölt zöld gombra távolításhoz, vagy a zöld nyilakra a szomszédos térképek eléréséhez.


METAR-TAF: